createdAt,value
2022-11-13T00:01:50.221Z,96.68
2022-11-13T00:02:50.544Z,96.93
2022-11-13T00:03:50.792Z,97.14
2022-11-13T00:04:53.919Z,97.40
2022-11-13T00:05:51.312Z,96.78
2022-11-13T00:06:56.169Z,96.53
2022-11-13T00:07:54.785Z,96.12
2022-11-13T00:08:52.197Z,96.33
2022-11-13T00:09:52.469Z,95.92
2022-11-13T00:10:52.747Z,95.20
2022-11-13T00:11:53.035Z,94.68
2022-11-13T00:12:55.237Z,94.17
2022-11-13T00:13:53.595Z,93.65
2022-11-13T00:14:53.878Z,93.29
2022-11-13T00:15:55.066Z,93.29
2022-11-13T00:16:55.482Z,92.77
2022-11-13T00:17:56.558Z,92.71
2022-11-13T00:18:56.066Z,92.71
2022-11-13T00:19:56.226Z,93.06
2022-11-13T00:20:56.636Z,94.60
2022-11-13T00:21:56.806Z,95.33
2022-11-13T00:22:58.159Z,95.84
2022-11-13T00:23:58.337Z,96.05
2022-11-13T00:24:56.827Z,96.36
2022-11-13T00:25:57.111Z,96.36
2022-11-13T00:26:57.397Z,96.46
2022-11-13T00:27:58.522Z,96.46
2022-11-13T00:28:59.895Z,96.62
2022-11-13T00:29:59.099Z,96.42
2022-11-13T00:30:59.517Z,96.21
2022-11-13T00:32:00.749Z,96.62
2022-11-13T00:33:00.067Z,96.42
2022-11-13T00:35:00.727Z,96.06
2022-11-13T00:36:00.826Z,95.65
2022-11-13T00:37:02.177Z,94.83
2022-11-13T00:38:00.545Z,94.52
2022-11-13T00:39:00.839Z,94.21
2022-11-13T00:40:01.128Z,93.59
2022-11-13T00:41:01.406Z,92.92
2022-11-13T00:42:02.595Z,92.55
2022-11-13T00:43:01.937Z,92.12
2022-11-13T00:44:04.127Z,92.02
2022-11-13T00:45:02.491Z,91.75
2022-11-13T00:46:02.782Z,92.41
2022-11-13T00:47:04.964Z,92.82
2022-11-13T00:48:05.178Z,92.93
2022-11-13T00:49:05.361Z,93.03
2022-11-13T00:50:03.976Z,92.51
2022-11-13T00:51:04.272Z,92.78
2022-11-13T00:52:05.459Z,92.99
2022-11-13T00:53:06.670Z,93.60
2022-11-13T00:54:05.861Z,93.71
2022-11-13T00:55:07.040Z,93.98
2022-11-13T00:56:07.203Z,93.98
2022-11-13T00:57:07.921Z,93.98
2022-11-13T00:58:08.117Z,94.08
2022-11-13T00:59:08.303Z,93.98
2022-11-13T01:00:08.490Z,94.08
2022-11-13T01:01:08.785Z,93.83
2022-11-13T01:02:09.346Z,93.46
2022-11-13T01:03:09.523Z,93.25
2022-11-13T01:04:09.709Z,93.35
2022-11-13T01:05:09.888Z,93.25
2022-11-13T01:06:10.591Z,93.35
2022-11-13T01:07:08.999Z,93.05
2022-11-13T01:08:11.111Z,92.84
2022-11-13T01:09:09.602Z,92.47
2022-11-13T01:10:11.802Z,92.57
2022-11-13T01:11:10.159Z,92.57
2022-11-13T01:12:12.354Z,92.47
2022-11-13T01:13:10.725Z,92.27
2022-11-13T01:14:11.010Z,92.47
2022-11-13T01:15:13.190Z,92.41
2022-11-13T01:16:11.560Z,92.41
2022-11-13T01:17:13.734Z,92.51
2022-11-13T01:18:12.100Z,92.51
2022-11-13T01:19:12.391Z,93.24
2022-11-13T01:20:12.678Z,94.06
2022-11-13T01:21:12.967Z,94.74
2022-11-13T01:22:13.258Z,94.95
2022-11-13T01:23:15.445Z,95.15
2022-11-13T01:24:13.815Z,95.10
2022-11-13T01:25:14.091Z,95.21
2022-11-13T01:26:14.379Z,95.00
2022-11-13T01:27:14.661Z,94.96
2022-11-13T01:28:16.841Z,94.85
2022-11-13T01:29:15.202Z,94.55
2022-11-13T01:30:15.492Z,93.99
2022-11-13T01:31:15.792Z,94.03
2022-11-13T01:32:18.003Z,94.18
2022-11-13T01:33:16.327Z,95.31
2022-11-13T01:34:18.508Z,95.83
2022-11-13T01:35:16.880Z,95.83
2022-11-13T01:36:17.155Z,95.99
2022-11-13T01:37:17.448Z,95.78
2022-11-13T01:38:19.625Z,96.41
2022-11-13T01:39:19.813Z,96.09
2022-11-13T01:40:18.294Z,96.20
2022-11-13T01:41:23.115Z,96.09
2022-11-13T01:42:18.896Z,96.41
2022-11-13T01:43:19.179Z,97.02
2022-11-13T01:44:21.364Z,96.61
2022-11-13T01:45:19.719Z,96.50
2022-11-13T01:46:20.014Z,97.02
2022-11-13T01:47:20.298Z,97.02
2022-11-13T01:48:23.936Z,97.23
2022-11-13T01:49:24.112Z,97.43
2022-11-13T01:50:21.132Z,97.53
2022-11-13T01:51:23.288Z,97.43
2022-11-13T01:52:21.661Z,97.43
2022-11-13T01:53:21.940Z,97.43
2022-11-13T01:54:24.126Z,97.28
2022-11-13T01:55:22.484Z,97.18
2022-11-13T01:56:22.774Z,97.02
2022-11-13T01:57:23.059Z,97.18
2022-11-13T01:58:23.350Z,97.39
2022-11-13T01:59:25.530Z,97.18
2022-11-13T02:00:23.895Z,97.18
2022-11-13T02:01:25.218Z,97.18
2022-11-13T02:02:24.435Z,96.97
2022-11-13T02:03:24.715Z,96.77
2022-11-13T02:04:26.925Z,97.08
2022-11-13T02:05:27.128Z,97.18
2022-11-13T02:06:25.603Z,96.93
2022-11-13T02:07:25.891Z,96.46
2022-11-13T02:08:26.569Z,96.42
2022-11-13T02:09:28.384Z,96.42
2022-11-13T02:10:28.565Z,96.42
2022-11-13T02:11:27.055Z,96.11
2022-11-13T02:12:27.334Z,96.36
2022-11-13T02:13:30.467Z,96.46
2022-11-13T02:14:27.855Z,96.67
2022-11-13T02:15:31.605Z,96.52
2022-11-13T02:16:29.377Z,96.11
2022-11-13T02:17:29.535Z,96.21
2022-11-13T02:18:30.096Z,96.11
2022-11-13T02:19:31.061Z,96.00
2022-11-13T02:20:31.244Z,95.95
2022-11-13T02:21:30.679Z,96.05
2022-11-13T02:22:30.845Z,96.31
2022-11-13T02:23:32.212Z,96.15
2022-11-13T02:24:32.700Z,96.67
2022-11-13T02:25:32.765Z,96.56
2022-11-13T02:26:32.011Z,96.67
2022-11-13T02:27:31.354Z,96.36
2022-11-13T02:28:31.832Z,96.11
2022-11-13T02:29:35.295Z,95.84
2022-11-13T02:30:34.987Z,96.11
2022-11-13T02:31:34.948Z,95.80
2022-11-13T02:32:33.727Z,95.80
2022-11-13T02:33:33.885Z,95.80
2022-11-13T02:34:34.308Z,95.70
2022-11-13T02:35:35.536Z,95.39
2022-11-13T02:36:34.875Z,95.74
2022-11-13T02:37:35.051Z,96.25
2022-11-13T02:38:35.452Z,96.15
2022-11-13T02:39:34.799Z,96.05
2022-11-13T02:40:37.006Z,95.95
2022-11-13T02:41:38.110Z,96.05
2022-11-13T02:42:35.615Z,95.74
2022-11-13T02:43:35.897Z,95.95
2022-11-13T02:44:37.088Z,96.00
2022-11-13T02:45:37.279Z,95.49
2022-11-13T02:46:38.449Z,95.49
2022-11-13T02:47:38.617Z,95.39
2022-11-13T02:48:39.317Z,95.49
2022-11-13T02:49:39.497Z,95.39
2022-11-13T02:50:39.688Z,95.08
2022-11-13T02:51:38.296Z,95.18
2022-11-13T02:52:38.635Z,95.08
2022-11-13T02:53:38.919Z,94.98
2022-11-13T02:54:40.144Z,95.08
2022-11-13T02:55:39.466Z,95.53
2022-11-13T02:56:41.639Z,96.05
2022-11-13T02:57:41.827Z,95.95
2022-11-13T02:58:42.048Z,95.90
2022-11-13T02:59:42.206Z,95.53
2022-11-13T03:00:42.900Z,95.64
2022-11-13T03:01:43.091Z,95.59
2022-11-13T03:02:43.281Z,95.43
2022-11-13T03:03:58.963Z,95.64
2022-11-13T03:05:10.787Z,95.70
2022-11-13T03:05:43.438Z,95.53
2022-11-13T03:06:44.689Z,95.95
2022-11-13T03:07:43.048Z,95.74
2022-11-13T03:08:45.243Z,95.84
2022-11-13T03:09:43.597Z,95.84
2022-11-13T03:10:45.811Z,95.84
2022-11-13T03:11:45.986Z,96.15
2022-11-13T03:12:44.476Z,96.21
2022-11-13T03:13:46.636Z,95.95
2022-11-13T03:14:46.807Z,96.15
2022-11-13T03:15:45.305Z,96.46
2022-11-13T03:16:47.498Z,96.15
2022-11-13T03:17:47.645Z,96.00
2022-11-13T03:18:46.160Z,96.00
2022-11-13T03:19:48.320Z,95.80
2022-11-13T03:20:46.685Z,95.80
2022-11-13T03:21:46.985Z,95.90
2022-11-13T03:22:47.280Z,95.70
2022-11-13T03:23:49.464Z,95.90
2022-11-13T03:24:49.650Z,95.70
2022-11-13T03:25:48.198Z,95.28
2022-11-13T03:26:50.311Z,95.39
2022-11-13T03:27:48.669Z,95.80
2022-11-13T03:28:50.855Z,95.70
2022-11-13T03:29:51.009Z,95.59
2022-11-13T03:30:49.509Z,95.18
2022-11-13T03:31:49.791Z,95.65
2022-11-13T03:32:50.081Z,94.52
2022-11-13T03:33:52.269Z,94.58
2022-11-13T03:34:50.652Z,93.80
2022-11-13T03:35:52.806Z,94.73
2022-11-13T03:36:52.971Z,93.86
2022-11-13T03:37:53.148Z,93.76
2022-11-13T03:38:53.343Z,94.37
2022-11-13T03:39:53.986Z,93.82
2022-11-13T03:40:52.352Z,93.40
2022-11-13T03:41:52.641Z,93.10
2022-11-13T03:42:52.928Z,92.79
2022-11-13T03:43:55.117Z,92.93
2022-11-13T03:44:53.478Z,92.52
2022-11-13T03:45:53.782Z,92.27
2022-11-13T03:46:54.060Z,91.97
2022-11-13T03:47:54.364Z,92.11
2022-11-13T03:48:56.531Z,92.87
2022-11-13T03:49:54.889Z,93.49
2022-11-13T03:50:55.182Z,93.59
2022-11-13T03:51:55.481Z,94.26
2022-11-13T03:52:55.767Z,94.31
2022-11-13T03:53:57.929Z,94.01
2022-11-13T03:54:58.103Z,93.95
2022-11-13T03:55:56.582Z,94.67
2022-11-13T03:56:56.863Z,94.67
2022-11-13T03:57:57.141Z,94.73
2022-11-13T03:58:57.437Z,94.31
2022-11-13T03:59:59.600Z,93.90
2022-11-13T04:00:57.962Z,93.80
2022-11-13T04:01:58.307Z,94.01
2022-11-13T04:03:01.397Z,93.96
2022-11-13T04:03:58.784Z,93.65
2022-11-13T04:05:00.960Z,93.59
2022-11-13T04:06:01.142Z,93.80
2022-11-13T04:06:59.704Z,94.01
2022-11-13T04:07:59.981Z,93.90
2022-11-13T04:09:00.288Z,93.70
2022-11-13T04:10:02.473Z,93.59
2022-11-13T04:11:00.836Z,93.70
2022-11-13T04:12:03.002Z,93.80
2022-11-13T04:13:01.377Z,93.65
2022-11-13T04:14:01.652Z,93.39
2022-11-13T04:15:04.793Z,93.49
2022-11-13T04:16:02.173Z,93.80
2022-11-13T04:17:05.312Z,93.24
2022-11-13T04:18:03.578Z,93.65
2022-11-13T04:19:03.746Z,92.87
2022-11-13T04:20:05.175Z,93.49
2022-11-13T04:21:04.488Z,93.59
2022-11-13T04:22:04.731Z,93.86
2022-11-13T04:23:04.892Z,92.77
2022-11-13T04:24:05.313Z,94.01
2022-11-13T04:25:06.539Z,94.01
2022-11-13T04:26:04.897Z,93.86
2022-11-13T04:27:05.186Z,93.90
2022-11-13T04:28:07.364Z,93.80
2022-11-13T04:29:05.754Z,93.39
2022-11-13T04:30:08.877Z,93.49
2022-11-13T04:31:06.259Z,93.84
2022-11-13T04:32:07.355Z,94.36
2022-11-13T04:33:08.734Z,94.42
2022-11-13T04:34:07.936Z,94.42
2022-11-13T04:35:08.355Z,94.01
2022-11-13T04:36:09.585Z,93.70
2022-11-13T04:37:08.915Z,93.70
2022-11-13T04:38:10.134Z,94.07
2022-11-13T04:39:08.501Z,94.17
2022-11-13T04:40:08.784Z,92.93
2022-11-13T04:41:09.078Z,93.35
2022-11-13T04:42:09.355Z,93.04
2022-11-13T04:43:10.555Z,93.55
2022-11-13T04:44:11.717Z,93.70
2022-11-13T04:45:10.202Z,93.86
2022-11-13T04:46:12.384Z,93.40
2022-11-13T04:47:12.555Z,92.69
2022-11-13T04:48:12.738Z,92.79
2022-11-13T04:49:12.308Z,91.97
2022-11-13T04:50:11.653Z,92.44
2022-11-13T04:51:11.934Z,91.45
2022-11-13T04:52:12.219Z,91.86
2022-11-13T04:53:12.504Z,91.04
2022-11-13T04:54:14.699Z,90.78
2022-11-13T04:55:13.057Z,90.98
2022-11-13T04:56:13.366Z,91.29
2022-11-13T04:57:13.651Z,90.78
2022-11-13T04:58:13.941Z,90.57
2022-11-13T04:59:15.124Z,90.67
2022-11-13T05:00:16.289Z,90.36
2022-11-13T05:01:14.851Z,90.26
2022-11-13T05:02:16.965Z,90.06
2022-11-13T05:03:17.149Z,90.16
2022-11-13T05:04:17.331Z,90.06
2022-11-13T05:05:17.521Z,90.61
2022-11-13T05:06:18.176Z,91.38
2022-11-13T05:07:18.353Z,91.47
2022-11-13T05:08:18.591Z,91.78
2022-11-13T05:09:17.687Z,91.68
2022-11-13T05:10:17.400Z,92.24
2022-11-13T05:11:18.650Z,92.50
2022-11-13T05:12:20.866Z,92.55
2022-11-13T05:13:18.232Z,92.71
2022-11-13T05:14:20.412Z,92.71
2022-11-13T05:15:18.772Z,92.30
2022-11-13T05:16:20.966Z,91.89
2022-11-13T05:17:21.137Z,91.06
2022-11-13T05:18:19.650Z,90.66
2022-11-13T05:19:21.804Z,90.34
2022-11-13T05:20:20.176Z,90.24
2022-11-13T05:21:20.457Z,90.03
2022-11-13T05:22:20.740Z,90.34
2022-11-13T05:23:21.025Z,90.14
2022-11-13T05:24:23.214Z,90.34
2022-11-13T05:25:21.571Z,90.96
2022-11-13T05:26:21.871Z,91.27
2022-11-13T05:27:22.187Z,91.99
2022-11-13T05:28:22.487Z,92.20
2022-11-13T05:29:24.670Z,92.30
2022-11-13T05:30:23.056Z,92.10
2022-11-13T05:31:25.226Z,91.89
2022-11-13T05:32:23.586Z,92.20
2022-11-13T05:33:23.881Z,92.44
2022-11-13T05:34:24.168Z,93.06
2022-11-13T05:35:26.338Z,93.16
2022-11-13T05:36:26.525Z,93.37
2022-11-13T05:37:25.009Z,93.58
2022-11-13T05:38:25.460Z,93.12
2022-11-13T05:39:25.535Z,92.24
2022-11-13T05:40:25.826Z,91.83
2022-11-13T05:41:28.007Z,91.31
2022-11-13T05:42:26.373Z,91.15
2022-11-13T05:43:26.657Z,91.05
2022-11-13T05:44:26.948Z,91.25
2022-11-13T05:45:27.229Z,91.05
2022-11-13T05:46:29.414Z,90.94
2022-11-13T05:47:27.784Z,90.84
2022-11-13T05:48:30.516Z,90.53
2022-11-13T05:49:28.357Z,90.33
2022-11-13T05:50:28.656Z,89.85
2022-11-13T05:51:28.928Z,90.43
2022-11-13T05:52:31.259Z,90.67
2022-11-13T05:53:31.437Z,91.19
2022-11-13T05:54:31.639Z,92.63
2022-11-13T05:55:31.823Z,93.66
2022-11-13T05:56:30.480Z,94.38
2022-11-13T05:57:32.611Z,95.00
2022-11-13T05:58:32.791Z,95.10
2022-11-13T05:59:31.392Z,94.65
2022-11-13T06:00:31.678Z,94.55
2022-11-13T06:01:32.010Z,94.45
2022-11-13T06:02:34.149Z,93.52
2022-11-13T06:03:32.511Z,92.84
2022-11-13T06:04:34.693Z,92.57
2022-11-13T06:05:33.055Z,93.30
2022-11-13T06:06:33.348Z,92.99
2022-11-13T06:07:35.513Z,93.19
2022-11-13T06:08:33.881Z,92.94
2022-11-13T06:09:36.053Z,92.22
2022-11-13T06:10:34.421Z,92.33
2022-11-13T06:11:34.703Z,91.91
2022-11-13T06:12:35.012Z,91.60
2022-11-13T06:13:35.291Z,91.60
2022-11-13T06:14:35.582Z,91.50
2022-11-13T06:15:35.865Z,91.91
2022-11-13T06:16:39.015Z,91.60
2022-11-13T06:17:39.184Z,91.25
2022-11-13T06:18:39.393Z,91.05
2022-11-13T06:19:38.041Z,90.73
2022-11-13T06:20:38.201Z,90.12
2022-11-13T06:21:38.363Z,90.22
2022-11-13T06:22:39.748Z,89.95
2022-11-13T06:23:40.884Z,89.95
2022-11-13T06:24:39.354Z,90.37
2022-11-13T06:25:39.515Z,90.26
2022-11-13T06:26:39.934Z,90.47
2022-11-13T06:27:41.180Z,90.37
2022-11-13T06:28:40.513Z,90.47
2022-11-13T06:29:40.673Z,90.51
2022-11-13T06:30:40.145Z,90.41
2022-11-13T06:31:40.464Z,90.00
2022-11-13T06:32:44.086Z,90.72
2022-11-13T06:33:41.100Z,90.82
2022-11-13T06:34:41.403Z,91.34
2022-11-13T06:35:44.548Z,91.03
2022-11-13T06:36:44.736Z,91.54
2022-11-13T06:37:43.955Z,91.54
2022-11-13T06:38:43.444Z,91.44
2022-11-13T06:39:43.804Z,91.54
2022-11-13T06:40:44.135Z,91.24
2022-11-13T06:41:44.379Z,91.96
2022-11-13T06:42:45.729Z,92.63
2022-11-13T06:43:44.003Z,92.43
2022-11-13T06:44:44.345Z,92.94
2022-11-13T06:45:44.637Z,92.88
2022-11-13T06:46:44.957Z,93.50
2022-11-13T06:47:46.145Z,93.71
2022-11-13T06:48:48.159Z,94.32
2022-11-13T06:49:46.682Z,94.53
2022-11-13T06:50:48.689Z,94.08
2022-11-13T06:51:48.161Z,93.98
2022-11-13T06:52:48.348Z,93.41
2022-11-13T06:53:46.981Z,93.11
2022-11-13T06:54:49.188Z,92.80
2022-11-13T06:55:49.357Z,92.29
2022-11-13T06:56:49.535Z,92.38
2022-11-13T06:57:49.722Z,92.29
2022-11-13T06:58:48.479Z,91.66
2022-11-13T06:59:48.790Z,91.46
2022-11-13T07:00:51.053Z,91.05
2022-11-13T07:01:49.423Z,91.40
2022-11-13T07:02:49.738Z,92.18
2022-11-13T07:03:50.054Z,92.08
2022-11-13T07:04:50.399Z,91.56
2022-11-13T07:05:52.562Z,91.50
2022-11-13T07:06:51.060Z,91.40
2022-11-13T07:07:53.153Z,91.19
2022-11-13T07:08:51.559Z,91.30
2022-11-13T07:09:51.881Z,90.88
2022-11-13T07:10:54.063Z,90.99
2022-11-13T07:11:52.474Z,91.19
2022-11-13T07:12:54.966Z,91.40
2022-11-13T07:13:53.124Z,91.56
2022-11-13T07:14:55.319Z,91.87
2022-11-13T07:15:53.714Z,93.31
2022-11-13T07:17:09.372Z,93.37
2022-11-13T07:17:57.070Z,93.93
2022-11-13T07:18:57.181Z,93.88
2022-11-13T07:19:54.855Z,93.16
2022-11-13T07:20:55.168Z,92.76
2022-11-13T07:21:57.347Z,92.71
2022-11-13T07:22:55.746Z,92.34
2022-11-13T07:23:56.074Z,93.48
2022-11-13T07:24:56.404Z,94.20
2022-11-13T07:25:56.730Z,92.86
2022-11-13T07:26:58.911Z,92.03
2022-11-13T07:27:57.316Z,91.21
2022-11-13T07:32:45.031Z,90.14
2022-11-13T07:33:45.353Z,89.42
2022-11-13T07:34:45.677Z,88.80
2022-11-13T07:35:46.003Z,88.96
2022-11-13T07:36:48.189Z,88.56
2022-11-13T07:37:48.347Z,88.14
2022-11-13T07:38:46.855Z,87.90
2022-11-13T07:39:47.181Z,87.79
2022-11-13T07:40:47.506Z,87.34
2022-11-13T07:41:48.673Z,87.13
2022-11-13T07:42:48.060Z,86.99
2022-11-13T07:43:48.380Z,86.33
2022-11-13T07:44:54.480Z,85.99
2022-11-13T07:45:50.033Z,85.74
2022-11-13T07:46:51.219Z,85.64
2022-11-13T07:47:51.399Z,85.44
2022-11-13T07:48:49.920Z,85.17
2022-11-13T07:49:50.260Z,85.11
2022-11-13T07:50:52.430Z,85.21
2022-11-13T07:51:50.839Z,85.38
2022-11-13T07:52:51.154Z,85.13
2022-11-13T07:53:51.473Z,84.84
2022-11-13T07:54:51.803Z,84.60
2022-11-13T07:55:54.935Z,84.22
2022-11-13T07:56:55.114Z,82.54
2022-11-13T07:57:52.780Z,81.41
2022-11-13T07:58:53.102Z,82.56
2022-11-13T07:59:54.301Z,81.13
2022-11-13T08:00:54.676Z,80.42
2022-11-13T08:01:54.043Z,80.02
2022-11-13T08:02:56.205Z,81.29
2022-11-13T08:03:54.614Z,82.48
2022-11-13T08:04:54.943Z,82.27
2022-11-13T08:05:57.130Z,82.40
2022-11-13T08:06:55.575Z,81.85
2022-11-13T08:07:57.715Z,81.03
2022-11-13T08:08:56.111Z,80.69
2022-11-13T08:09:56.452Z,80.34
2022-11-13T08:10:56.778Z,80.10
2022-11-13T08:11:58.960Z,79.59
2022-11-13T08:12:59.133Z,78.94
2022-11-13T08:13:57.657Z,78.30
2022-11-13T08:14:57.982Z,77.64
2022-11-13T08:15:58.330Z,76.53
2022-11-13T08:16:58.667Z,75.13
2022-11-13T08:18:00.845Z,77.17
2022-11-13T08:19:01.001Z,76.80
2022-11-13T08:19:59.537Z,77.65
2022-11-13T08:20:59.861Z,77.93
2022-11-13T08:22:00.194Z,78.78
2022-11-13T08:23:00.639Z,79.94
2022-11-13T08:24:02.704Z,80.25
2022-11-13T08:25:01.119Z,80.60
2022-11-13T08:26:01.438Z,81.76
2022-11-13T08:27:01.762Z,83.98
2022-11-13T08:28:02.106Z,85.77
2022-11-13T08:29:04.268Z,87.30
2022-11-13T08:30:02.700Z,87.65
2022-11-13T08:31:03.010Z,87.85
2022-11-13T08:32:03.334Z,88.21
2022-11-13T08:33:03.655Z,89.23
2022-11-13T08:34:06.822Z,89.03
2022-11-13T08:35:04.251Z,89.54
2022-11-13T08:36:04.559Z,90.26
2022-11-13T08:37:06.734Z,89.29
2022-11-13T08:38:06.914Z,89.43
2022-11-13T08:39:05.443Z,89.95
2022-11-13T08:40:05.766Z,90.01
2022-11-13T08:41:09.205Z,89.29
2022-11-13T08:42:07.385Z,88.64
2022-11-13T08:43:08.614Z,88.88
2022-11-13T08:44:07.013Z,89.84
2022-11-13T08:45:08.154Z,90.26
2022-11-13T08:46:08.579Z,90.71
2022-11-13T08:47:07.952Z,91.02
2022-11-13T08:48:08.281Z,91.18
2022-11-13T08:49:10.456Z,90.97
2022-11-13T08:50:08.856Z,91.03
2022-11-13T08:51:09.189Z,90.52
2022-11-13T08:52:09.510Z,90.52
2022-11-13T08:53:10.697Z,90.46
2022-11-13T08:54:10.893Z,91.28
2022-11-13T08:55:10.401Z,90.89
2022-11-13T08:56:10.726Z,90.48
2022-11-13T08:57:11.066Z,89.76
2022-11-13T08:58:11.398Z,89.76
2022-11-13T08:59:13.575Z,89.76
2022-11-13T09:00:13.749Z,90.07
2022-11-13T09:01:13.919Z,89.83
2022-11-13T09:02:12.569Z,89.62
2022-11-13T09:03:12.902Z,88.90
2022-11-13T09:04:13.289Z,89.83
2022-11-13T09:05:13.489Z,89.27
2022-11-13T09:06:15.672Z,89.12
2022-11-13T09:07:14.139Z,88.06
2022-11-13T09:08:14.330Z,87.29
2022-11-13T09:09:14.664Z,87.73
2022-11-13T09:10:15.002Z,88.14
2022-11-13T09:11:16.821Z,88.14
2022-11-13T09:12:15.595Z,88.20
2022-11-13T09:13:15.917Z,88.06
2022-11-13T09:14:16.254Z,87.20
2022-11-13T09:15:23.297Z,85.71
2022-11-13T09:16:19.620Z,86.63
2022-11-13T09:17:18.787Z,86.79
2022-11-13T09:18:17.439Z,85.97
2022-11-13T09:19:17.780Z,85.83
2022-11-13T09:20:22.778Z,85.67
2022-11-13T09:21:18.434Z,85.67
2022-11-13T09:22:18.771Z,86.02
2022-11-13T09:23:19.113Z,85.91
2022-11-13T09:24:19.454Z,86.43
2022-11-13T09:25:21.624Z,86.12
2022-11-13T09:26:19.929Z,86.79
2022-11-13T09:27:20.159Z,85.47
2022-11-13T09:28:22.346Z,85.67
2022-11-13T09:29:20.644Z,85.88
2022-11-13T09:30:22.889Z,85.22
2022-11-13T09:31:21.142Z,85.67
2022-11-13T09:32:21.375Z,86.18
2022-11-13T09:33:23.552Z,85.22
2022-11-13T09:34:21.852Z,85.42
2022-11-13T09:35:24.042Z,85.32
2022-11-13T09:36:24.231Z,85.12
2022-11-13T09:37:22.656Z,84.81
2022-11-13T09:38:22.884Z,84.81
2022-11-13T09:39:23.101Z,84.55
2022-11-13T09:40:23.459Z,84.99
2022-11-13T09:41:25.636Z,85.67
2022-11-13T09:42:23.938Z,84.61
2022-11-13T09:43:24.166Z,84.41
2022-11-13T09:44:24.395Z,83.85
2022-11-13T09:45:24.624Z,83.71
2022-11-13T09:46:26.807Z,84.12
2022-11-13T09:47:27.002Z,82.86
2022-11-13T09:48:25.505Z,82.59
2022-11-13T09:49:25.778Z,82.42
2022-11-13T09:50:25.989Z,83.71
2022-11-13T09:51:28.174Z,83.23
2022-11-13T09:52:26.496Z,82.61
2022-11-13T09:53:26.713Z,82.00
2022-11-13T09:54:26.946Z,82.41
2022-11-13T09:55:27.175Z,82.00
2022-11-13T09:56:29.368Z,81.80
2022-11-13T09:57:27.668Z,82.53
2022-11-13T09:58:28.376Z,83.85
2022-11-13T09:59:28.226Z,84.08
2022-11-13T10:00:28.448Z,83.29
2022-11-13T10:01:30.635Z,81.41
2022-11-13T10:02:28.928Z,80.05
2022-11-13T10:03:54.183Z,80.50
2022-11-13T10:04:30.503Z,79.57
2022-11-13T10:05:29.786Z,77.74
2022-11-13T10:06:31.975Z,77.60
2022-11-13T10:07:30.270Z,77.09
2022-11-13T10:08:30.895Z,77.94
2022-11-13T10:09:30.842Z,77.03
2022-11-13T10:10:32.917Z,77.64
2022-11-13T10:11:31.338Z,77.02
2022-11-13T10:12:31.591Z,74.58
2022-11-13T10:13:31.812Z,75.84
2022-11-13T10:14:33.998Z,76.75
2022-11-13T10:15:32.325Z,76.89
2022-11-13T10:16:32.538Z,76.79
2022-11-13T10:17:32.771Z,76.99
2022-11-13T10:18:33.045Z,77.00
2022-11-13T10:19:35.181Z,79.03
2022-11-13T10:20:33.610Z,78.69
2022-11-13T10:21:35.778Z,78.31
2022-11-13T10:22:35.010Z,76.89
2022-11-13T10:23:34.370Z,77.94
2022-11-13T10:24:36.561Z,76.07
2022-11-13T10:25:34.859Z,76.95
2022-11-13T10:26:37.051Z,75.02
2022-11-13T10:27:35.449Z,77.74
2022-11-13T10:28:50.140Z,77.20
2022-11-13T10:29:36.869Z,76.01
2022-11-13T10:30:38.058Z,74.88
2022-11-13T10:31:36.480Z,75.49
2022-11-13T10:32:36.712Z,74.99
2022-11-13T10:33:36.946Z,75.70
2022-11-13T10:34:37.168Z,75.09
2022-11-13T10:35:38.302Z,75.23
2022-11-13T10:36:39.653Z,76.01
2022-11-13T10:37:38.021Z,77.74
2022-11-13T10:38:38.230Z,76.92
2022-11-13T10:39:38.476Z,73.16
2022-11-13T10:40:38.697Z,72.52
2022-11-13T10:41:42.375Z,74.04
2022-11-13T10:42:39.188Z,76.86
2022-11-13T10:43:39.431Z,78.08
2022-11-13T10:44:39.659Z,77.23
2022-11-13T10:45:39.894Z,77.44
2022-11-13T10:46:40.136Z,76.59
2022-11-13T10:48:03.202Z,77.03
2022-11-13T10:48:41.635Z,77.26
2022-11-13T10:49:41.164Z,76.72
2022-11-13T10:50:41.234Z,75.12
2022-11-13T10:51:43.455Z,74.82
2022-11-13T10:52:43.612Z,75.46
2022-11-13T10:53:42.050Z,77.23
2022-11-13T10:54:42.273Z,77.09
2022-11-13T10:55:42.761Z,76.68
2022-11-13T10:56:42.828Z,77.03
2022-11-13T10:57:45.842Z,77.74
2022-11-13T10:58:45.247Z,78.59
2022-11-13T10:59:43.683Z,78.49
2022-11-13T11:00:44.023Z,78.35
2022-11-13T11:01:44.295Z,77.94
2022-11-13T11:02:44.515Z,78.08
2022-11-13T11:03:46.711Z,78.53
2022-11-13T11:04:47.866Z,79.89
2022-11-13T11:05:45.300Z,79.93
2022-11-13T11:07:46.887Z,80.88
2022-11-13T11:08:46.148Z,81.59
2022-11-13T11:09:48.331Z,82.00
2022-11-13T11:10:46.730Z,81.90
2022-11-13T11:11:48.819Z,82.24
2022-11-13T11:12:47.240Z,81.76
2022-11-13T11:13:47.476Z,80.91
2022-11-13T11:14:47.708Z,80.23
2022-11-13T11:15:48.797Z,80.84
2022-11-13T11:16:50.160Z,81.93
2022-11-13T11:17:48.450Z,80.70
2022-11-13T11:18:48.688Z,80.60
2022-11-13T11:19:48.922Z,80.33
2022-11-13T11:20:49.141Z,81.25
2022-11-13T11:21:49.487Z,81.49
2022-11-13T11:22:51.650Z,82.24
2022-11-13T11:23:54.761Z,82.75
2022-11-13T11:24:53.277Z,82.31
2022-11-13T11:25:50.591Z,81.66
2022-11-13T11:26:50.929Z,81.04
2022-11-13T11:27:51.160Z,81.29
2022-11-13T11:28:53.339Z,82.21
2022-11-13T11:29:51.762Z,82.31
2022-11-13T11:30:52.969Z,81.04
2022-11-13T11:31:52.243Z,80.94
2022-11-13T11:32:54.434Z,81.45
2022-11-13T11:33:54.204Z,80.94
2022-11-13T11:34:58.797Z,80.16
2022-11-13T11:35:54.259Z,79.64
2022-11-13T11:36:53.545Z,78.59
2022-11-13T11:37:55.742Z,78.93
2022-11-13T11:38:54.049Z,79.20
2022-11-13T11:39:54.399Z,78.63
2022-11-13T11:40:54.593Z,78.63
2022-11-13T11:41:55.772Z,79.93
2022-11-13T11:42:57.022Z,80.94
2022-11-13T11:43:55.645Z,81.25
2022-11-13T11:44:55.559Z,81.09
2022-11-13T11:45:56.669Z,82.65
2022-11-13T11:46:56.114Z,83.02
2022-11-13T11:47:58.301Z,82.21
2022-11-13T11:48:56.604Z,82.17
2022-11-13T11:49:56.846Z,81.15
2022-11-13T11:50:57.076Z,81.59
2022-11-13T11:51:57.335Z,82.51
2022-11-13T11:52:59.615Z,82.61
2022-11-13T11:53:57.790Z,82.35
2022-11-13T11:54:58.029Z,83.16
2022-11-13T11:56:00.207Z,82.96
2022-11-13T11:56:58.505Z,82.71
2022-11-13T11:57:58.738Z,82.86
2022-11-13T11:58:58.966Z,83.37
2022-11-13T12:00:01.155Z,83.26
2022-11-13T12:01:00.447Z,83.78
2022-11-13T12:01:59.746Z,83.98
2022-11-13T12:02:59.963Z,83.47
2022-11-13T12:04:00.211Z,84.33
2022-11-13T12:05:00.539Z,84.42
2022-11-13T12:06:02.632Z,84.80
2022-11-13T12:07:01.082Z,84.49
2022-11-13T12:08:01.287Z,84.39
2022-11-13T12:09:01.537Z,85.24
2022-11-13T12:10:01.757Z,84.63
2022-11-13T12:11:03.931Z,85.65
2022-11-13T12:12:04.131Z,85.00
2022-11-13T12:13:02.548Z,83.43
2022-11-13T12:14:02.779Z,84.04
2022-11-13T12:15:03.025Z,83.59
2022-11-13T12:16:03.476Z,83.15
2022-11-13T12:17:05.872Z,81.48
2022-11-13T12:18:08.236Z,81.58
2022-11-13T12:19:04.208Z,81.17
2022-11-13T12:20:04.444Z,81.86
2022-11-13T12:21:04.672Z,83.70
2022-11-13T12:22:06.841Z,83.87
2022-11-13T12:23:07.018Z,85.55
2022-11-13T12:24:05.461Z,85.00
2022-11-13T12:25:05.720Z,84.94
2022-11-13T12:26:05.921Z,85.71
2022-11-13T12:27:06.147Z,85.45
2022-11-13T12:28:08.328Z,86.26
2022-11-13T12:29:06.660Z,85.61
2022-11-13T12:30:06.917Z,85.10
2022-11-13T12:31:07.155Z,85.47
2022-11-13T12:32:08.343Z,84.86
2022-11-13T12:33:09.565Z,85.30
2022-11-13T12:34:09.326Z,85.55
2022-11-13T12:35:08.134Z,85.61
2022-11-13T12:36:10.313Z,85.86
2022-11-13T12:37:08.601Z,85.92
2022-11-13T12:38:08.839Z,86.36
2022-11-13T12:39:09.076Z,86.36
2022-11-13T12:40:11.295Z,86.63
2022-11-13T12:41:11.450Z,85.00
2022-11-13T12:42:09.875Z,86.00
2022-11-13T12:43:10.115Z,87.23
2022-11-13T12:44:10.346Z,87.98
2022-11-13T12:45:10.594Z,87.57
2022-11-13T12:46:14.218Z,88.08
2022-11-13T12:47:11.042Z,87.88
2022-11-13T12:48:11.357Z,88.23
2022-11-13T12:49:13.536Z,87.88
2022-11-13T12:50:13.721Z,87.32
2022-11-13T12:51:12.155Z,86.82
2022-11-13T12:52:12.384Z,86.20
2022-11-13T12:53:12.613Z,86.35
2022-11-13T12:54:12.843Z,86.49
2022-11-13T12:55:15.027Z,87.61
2022-11-13T12:56:13.329Z,87.10
2022-11-13T12:57:13.553Z,86.79
2022-11-13T12:58:13.793Z,87.55
2022-11-13T12:59:30.467Z,87.61
2022-11-13T13:00:17.217Z,87.10
2022-11-13T13:01:14.631Z,87.41
2022-11-13T13:02:16.734Z,88.23
2022-11-13T13:03:15.153Z,87.32